Terminal Aerodrome Forecast
Issued by NWS

Home | Current Version | Previous Version | Text Only | Print | Product List | Glossary On
Versions: 1 2 3 4 5 6 7 8 9 10 11 12 13 14 15 16 17 18 19 20
264
FTUS46 KLOX 182340
TAFOXR
TAF
KOXR 182340Z 1900/1924 27012KT P6SM BKN250
     FM190100 30006KT P6SM SCT250
     FM190500 04006KT P6SM SKC
     FM191800 32007KT P6SM SKC
     FM192100 28012KT P6SM SKC=

USA.gov is the U.S. government's official web portal to all federal, state and local government web resources and services.